sensor_id;sensor_type;location;lat;lon;timestamp;P1;durP1;ratioP1;P2;durP2;ratioP2
3293;SDS011;1659;51.470;6.770;2024-01-16T00:01:11;14.03;;;7.40;;
3293;SDS011;1659;51.470;6.770;2024-01-16T00:03:40;15.63;;;6.57;;
3293;SDS011;1659;51.470;6.770;2024-01-16T00:06:07;12.60;;;6.00;;
3293;SDS011;1659;51.470;6.770;2024-01-16T00:08:33;17.40;;;7.50;;
3293;SDS011;1659;51.470;6.770;2024-01-16T00:11:01;9.50;;;6.23;;
3293;SDS011;1659;51.470;6.770;2024-01-16T00:13:28;14.80;;;7.33;;
3293;SDS011;1659;51.470;6.770;2024-01-16T00:15:54;13.60;;;7.20;;
3293;SDS011;1659;51.470;6.770;2024-01-16T00:18:21;9.37;;;5.43;;
3293;SDS011;1659;51.470;6.770;2024-01-16T00:20:49;9.93;;;6.50;;
3293;SDS011;1659;51.470;6.770;2024-01-16T00:23:16;11.27;;;5.23;;
3293;SDS011;1659;51.470;6.770;2024-01-16T00:25:43;11.20;;;5.50;;
3293;SDS011;1659;51.470;6.770;2024-01-16T00:28:09;10.57;;;6.37;;
3293;SDS011;1659;51.470;6.770;2024-01-16T00:30:36;9.17;;;5.97;;
3293;SDS011;1659;51.470;6.770;2024-01-16T00:33:02;15.10;;;7.10;;
3293;SDS011;1659;51.470;6.770;2024-01-16T00:35:29;12.80;;;6.67;;
3293;SDS011;1659;51.470;6.770;2024-01-16T00:37:57;11.07;;;5.87;;
3293;SDS011;1659;51.470;6.770;2024-01-16T00:40:23;10.80;;;6.00;;
3293;SDS011;1659;51.470;6.770;2024-01-16T00:42:50;22.13;;;6.00;;
3293;SDS011;1659;51.470;6.770;2024-01-16T00:45:16;14.93;;;6.77;;
3293;SDS011;1659;51.470;6.770;2024-01-16T00:47:43;11.37;;;5.57;;
3293;SDS011;1659;51.470;6.770;2024-01-16T00:50:09;8.83;;;5.63;;
3293;SDS011;1659;51.470;6.770;2024-01-16T00:52:36;9.33;;;5.53;;
3293;SDS011;1659;51.470;6.770;2024-01-16T00:55:04;9.20;;;5.50;;
3293;SDS011;1659;51.470;6.770;2024-01-16T00:57:31;9.07;;;5.67;;
3293;SDS011;1659;51.470;6.770;2024-01-16T00:59:58;12.73;;;6.10;;
3293;SDS011;1659;51.470;6.770;2024-01-16T01:02:24;10.90;;;6.00;;
3293;SDS011;1659;51.470;6.770;2024-01-16T01:04:51;13.07;;;6.57;;
3293;SDS011;1659;51.470;6.770;2024-01-16T01:07:18;17.37;;;7.30;;
3293;SDS011;1659;51.470;6.770;2024-01-16T01:09:44;11.67;;;5.47;;
3293;SDS011;1659;51.470;6.770;2024-01-16T01:12:12;8.63;;;5.70;;
3293;SDS011;1659;51.470;6.770;2024-01-16T01:14:39;9.73;;;5.93;;
3293;SDS011;1659;51.470;6.770;2024-01-16T01:17:05;12.00;;;6.20;;
3293;SDS011;1659;51.470;6.770;2024-01-16T01:19:32;11.40;;;6.47;;
3293;SDS011;1659;51.470;6.770;2024-01-16T01:21:59;11.13;;;5.77;;
3293;SDS011;1659;51.470;6.770;2024-01-16T01:24:26;14.43;;;6.30;;
3293;SDS011;1659;51.470;6.770;2024-01-16T01:26:52;12.23;;;5.70;;
3293;SDS011;1659;51.470;6.770;2024-01-16T01:29:20;15.17;;;7.00;;
3293;SDS011;1659;51.470;6.770;2024-01-16T01:31:46;10.83;;;6.03;;
3293;SDS011;1659;51.470;6.770;2024-01-16T01:34:13;20.73;;;8.40;;
3293;SDS011;1659;51.470;6.770;2024-01-16T01:36:40;18.33;;;6.70;;
3293;SDS011;1659;51.470;6.770;2024-01-16T01:39:08;13.10;;;5.80;;
3293;SDS011;1659;51.470;6.770;2024-01-16T01:41:35;12.93;;;5.17;;
3293;SDS011;1659;51.470;6.770;2024-01-16T01:44:01;11.77;;;6.27;;
3293;SDS011;1659;51.470;6.770;2024-01-16T01:46:29;12.13;;;6.50;;
3293;SDS011;1659;51.470;6.770;2024-01-16T01:48:58;21.67;;;6.13;;
3293;SDS011;1659;51.470;6.770;2024-01-16T01:51:25;8.87;;;6.30;;
3293;SDS011;1659;51.470;6.770;2024-01-16T01:53:52;15.87;;;6.83;;
3293;SDS011;1659;51.470;6.770;2024-01-16T01:56:19;20.73;;;7.43;;
3293;SDS011;1659;51.470;6.770;2024-01-16T01:58:47;17.10;;;6.43;;
3293;SDS011;1659;51.470;6.770;2024-01-16T02:01:16;22.50;;;7.30;;
3293;SDS011;1659;51.470;6.770;2024-01-16T02:03:46;16.53;;;7.10;;
3293;SDS011;1659;51.470;6.770;2024-01-16T02:06:15;19.50;;;7.00;;
3293;SDS011;1659;51.470;6.770;2024-01-16T02:08:42;13.17;;;6.43;;
3293;SDS011;1659;51.470;6.770;2024-01-16T02:11:09;17.10;;;7.57;;
3293;SDS011;1659;51.470;6.770;2024-01-16T02:13:35;19.13;;;8.00;;
3293;SDS011;1659;51.470;6.770;2024-01-16T02:16:02;14.90;;;6.80;;
3293;SDS011;1659;51.470;6.770;2024-01-16T02:18:30;15.03;;;6.13;;
3293;SDS011;1659;51.470;6.770;2024-01-16T02:21:00;12.90;;;5.33;;
3293;SDS011;1659;51.470;6.770;2024-01-16T02:23:30;13.50;;;6.50;;
3293;SDS011;1659;51.470;6.770;2024-01-16T02:25:57;9.67;;;6.37;;
3293;SDS011;1659;51.470;6.770;2024-01-16T02:28:24;11.40;;;6.70;;
3293;SDS011;1659;51.470;6.770;2024-01-16T02:30:50;15.53;;;7.83;;
3293;SDS011;1659;51.470;6.770;2024-01-16T02:33:17;13.17;;;7.10;;
3293;SDS011;1659;51.470;6.770;2024-01-16T02:35:43;18.63;;;7.57;;
3293;SDS011;1659;51.470;6.770;2024-01-16T02:38:10;12.10;;;7.50;;
3293;SDS011;1659;51.470;6.770;2024-01-16T02:40:38;12.60;;;8.20;;
3293;SDS011;1659;51.470;6.770;2024-01-16T02:43:04;17.03;;;7.73;;
3293;SDS011;1659;51.470;6.770;2024-01-16T02:45:31;17.87;;;8.73;;
3293;SDS011;1659;51.470;6.770;2024-01-16T02:47:57;20.90;;;9.10;;
3293;SDS011;1659;51.470;6.770;2024-01-16T02:50:24;18.60;;;8.70;;
3293;SDS011;1659;51.470;6.770;2024-01-16T02:52:51;24.13;;;9.50;;
3293;SDS011;1659;51.470;6.770;2024-01-16T02:55:17;19.00;;;11.53;;
3293;SDS011;1659;51.470;6.770;2024-01-16T02:57:45;24.00;;;11.50;;
3293;SDS011;1659;51.470;6.770;2024-01-16T03:00:12;21.40;;;10.33;;
3293;SDS011;1659;51.470;6.770;2024-01-16T03:02:39;28.23;;;11.60;;
3293;SDS011;1659;51.470;6.770;2024-01-16T03:05:07;20.70;;;10.40;;
3293;SDS011;1659;51.470;6.770;2024-01-16T03:07:34;23.13;;;11.27;;
3293;SDS011;1659;51.470;6.770;2024-01-16T03:10:01;20.60;;;10.07;;
3293;SDS011;1659;51.470;6.770;2024-01-16T03:12:27;21.97;;;10.97;;
3293;SDS011;1659;51.470;6.770;2024-01-16T03:14:55;29.27;;;12.00;;
3293;SDS011;1659;51.470;6.770;2024-01-16T03:17:22;29.90;;;11.07;;
3293;SDS011;1659;51.470;6.770;2024-01-16T03:19:48;21.60;;;10.50;;
3293;SDS011;1659;51.470;6.770;2024-01-16T03:22:15;24.87;;;11.53;;
3293;SDS011;1659;51.470;6.770;2024-01-16T03:24:41;27.57;;;11.87;;
3293;SDS011;1659;51.470;6.770;2024-01-16T03:27:08;28.03;;;12.03;;
3293;SDS011;1659;51.470;6.770;2024-01-16T03:29:34;18.90;;;10.10;;
3293;SDS011;1659;51.470;6.770;2024-01-16T03:32:03;19.60;;;10.20;;
3293;SDS011;1659;51.470;6.770;2024-01-16T03:34:30;20.73;;;9.87;;
3293;SDS011;1659;51.470;6.770;2024-01-16T03:36:57;22.13;;;11.00;;
3293;SDS011;1659;51.470;6.770;2024-01-16T03:39:23;22.47;;;10.00;;
3293;SDS011;1659;51.470;6.770;2024-01-16T03:41:50;21.80;;;9.57;;
3293;SDS011;1659;51.470;6.770;2024-01-16T03:44:17;22.83;;;12.50;;
3293;SDS011;1659;51.470;6.770;2024-01-16T03:46:44;21.90;;;11.70;;
3293;SDS011;1659;51.470;6.770;2024-01-16T03:49:12;26.27;;;11.90;;
3293;SDS011;1659;51.470;6.770;2024-01-16T03:51:38;22.13;;;10.60;;
3293;SDS011;1659;51.470;6.770;2024-01-16T03:54:07;21.20;;;9.23;;
3293;SDS011;1659;51.470;6.770;2024-01-16T03:56:34;23.70;;;10.80;;
3293;SDS011;1659;51.470;6.770;2024-01-16T03:59:01;23.40;;;10.70;;
3293;SDS011;1659;51.470;6.770;2024-01-16T04:01:31;21.77;;;10.93;;
3293;SDS011;1659;51.470;6.770;2024-01-16T04:03:58;17.87;;;9.70;;
3293;SDS011;1659;51.470;6.770;2024-01-16T04:06:26;21.13;;;10.40;;
3293;SDS011;1659;51.470;6.770;2024-01-16T04:08:54;21.07;;;10.37;;
3293;SDS011;1659;51.470;6.770;2024-01-16T04:11:20;22.33;;;10.70;;
3293;SDS011;1659;51.470;6.770;2024-01-16T04:13:47;16.70;;;9.40;;
3293;SDS011;1659;51.470;6.770;2024-01-16T04:16:14;15.77;;;9.00;;
3293;SDS011;1659;51.470;6.770;2024-01-16T04:18:42;14.57;;;8.40;;
3293;SDS011;1659;51.470;6.770;2024-01-16T04:21:09;20.83;;;9.30;;
3293;SDS011;1659;51.470;6.770;2024-01-16T04:23:37;18.30;;;8.77;;
3293;SDS011;1659;51.470;6.770;2024-01-16T04:26:04;14.90;;;8.53;;
3293;SDS011;1659;51.470;6.770;2024-01-16T04:28:31;13.87;;;8.23;;
3293;SDS011;1659;51.470;6.770;2024-01-16T04:30:58;22.90;;;8.13;;
3293;SDS011;1659;51.470;6.770;2024-01-16T04:33:24;16.73;;;6.70;;
3293;SDS011;1659;51.470;6.770;2024-01-16T04:35:51;23.00;;;8.20;;
3293;SDS011;1659;51.470;6.770;2024-01-16T04:38:17;11.80;;;7.03;;
3293;SDS011;1659;51.470;6.770;2024-01-16T04:40:45;16.67;;;7.30;;
3293;SDS011;1659;51.470;6.770;2024-01-16T04:43:12;13.57;;;7.27;;
3293;SDS011;1659;51.470;6.770;2024-01-16T04:45:39;21.90;;;7.27;;
3293;SDS011;1659;51.470;6.770;2024-01-16T04:48:05;16.37;;;6.80;;
3293;SDS011;1659;51.470;6.770;2024-01-16T04:50:33;13.03;;;7.73;;
3293;SDS011;1659;51.470;6.770;2024-01-16T04:53:00;24.23;;;6.10;;
3293;SDS011;1659;51.470;6.770;2024-01-16T04:55:26;13.63;;;6.77;;
3293;SDS011;1659;51.470;6.770;2024-01-16T04:57:55;17.20;;;6.10;;
3293;SDS011;1659;51.470;6.770;2024-01-16T05:00:22;8.40;;;5.70;;
3293;SDS011;1659;51.470;6.770;2024-01-16T05:02:49;17.90;;;6.47;;
3293;SDS011;1659;51.470;6.770;2024-01-16T05:05:16;7.33;;;5.00;;
3293;SDS011;1659;51.470;6.770;2024-01-16T05:07:43;10.30;;;5.63;;
3293;SDS011;1659;51.470;6.770;2024-01-16T05:10:10;8.03;;;4.60;;
3293;SDS011;1659;51.470;6.770;2024-01-16T05:12:38;9.93;;;5.20;;
3293;SDS011;1659;51.470;6.770;2024-01-16T05:15:07;12.93;;;5.53;;
3293;SDS011;1659;51.470;6.770;2024-01-16T05:17:36;10.33;;;4.97;;
3293;SDS011;1659;51.470;6.770;2024-01-16T05:20:03;9.87;;;5.80;;
3293;SDS011;1659;51.470;6.770;2024-01-16T05:22:30;13.80;;;5.93;;
3293;SDS011;1659;51.470;6.770;2024-01-16T05:24:57;12.57;;;6.73;;
3293;SDS011;1659;51.470;6.770;2024-01-16T05:27:25;8.60;;;6.27;;
3293;SDS011;1659;51.470;6.770;2024-01-16T05:29:51;13.93;;;7.10;;
3293;SDS011;1659;51.470;6.770;2024-01-16T05:32:19;16.37;;;6.73;;
3293;SDS011;1659;51.470;6.770;2024-01-16T05:34:46;13.83;;;7.73;;
3293;SDS011;1659;51.470;6.770;2024-01-16T05:37:12;13.73;;;6.73;;
3293;SDS011;1659;51.470;6.770;2024-01-16T05:39:39;13.07;;;8.17;;
3293;SDS011;1659;51.470;6.770;2024-01-16T05:42:06;13.70;;;8.17;;
3293;SDS011;1659;51.470;6.770;2024-01-16T05:44:32;16.40;;;9.23;;
3293;SDS011;1659;51.470;6.770;2024-01-16T05:46:59;28.93;;;9.90;;
3293;SDS011;1659;51.470;6.770;2024-01-16T05:49:27;16.10;;;9.20;;
3293;SDS011;1659;51.470;6.770;2024-01-16T05:51:53;19.70;;;10.97;;
3293;SDS011;1659;51.470;6.770;2024-01-16T05:54:20;27.50;;;13.37;;
3293;SDS011;1659;51.470;6.770;2024-01-16T05:56:47;24.43;;;12.00;;
3293;SDS011;1659;51.470;6.770;2024-01-16T05:59:13;24.60;;;12.17;;
3293;SDS011;1659;51.470;6.770;2024-01-16T06:01:40;34.13;;;15.57;;
3293;SDS011;1659;51.470;6.770;2024-01-16T06:04:07;30.57;;;15.37;;
3293;SDS011;1659;51.470;6.770;2024-01-16T06:06:34;36.50;;;17.77;;
3293;SDS011;1659;51.470;6.770;2024-01-16T06:09:01;34.10;;;16.30;;
3293;SDS011;1659;51.470;6.770;2024-01-16T06:11:30;46.17;;;17.87;;
3293;SDS011;1659;51.470;6.770;2024-01-16T06:13:57;38.30;;;18.40;;
3293;SDS011;1659;51.470;6.770;2024-01-16T06:16:24;31.20;;;16.23;;
3293;SDS011;1659;51.470;6.770;2024-01-16T06:18:51;35.37;;;16.87;;
3293;SDS011;1659;51.470;6.770;2024-01-16T06:21:17;29.87;;;14.90;;
3293;SDS011;1659;51.470;6.770;2024-01-16T06:23:45;30.00;;;15.77;;
3293;SDS011;1659;51.470;6.770;2024-01-16T06:26:12;37.37;;;14.77;;
3293;SDS011;1659;51.470;6.770;2024-01-16T06:28:38;26.17;;;12.67;;
3293;SDS011;1659;51.470;6.770;2024-01-16T06:31:07;32.83;;;13.90;;
3293;SDS011;1659;51.470;6.770;2024-01-16T06:33:34;24.70;;;13.83;;
3293;SDS011;1659;51.470;6.770;2024-01-16T06:36:01;32.97;;;13.17;;
3293;SDS011;1659;51.470;6.770;2024-01-16T06:38:29;31.03;;;12.60;;
3293;SDS011;1659;51.470;6.770;2024-01-16T06:40:57;23.27;;;12.00;;
3293;SDS011;1659;51.470;6.770;2024-01-16T06:43:24;28.70;;;11.90;;
3293;SDS011;1659;51.470;6.770;2024-01-16T06:45:51;26.10;;;12.90;;
3293;SDS011;1659;51.470;6.770;2024-01-16T06:48:18;25.40;;;12.17;;
3293;SDS011;1659;51.470;6.770;2024-01-16T06:50:44;20.17;;;11.57;;
3293;SDS011;1659;51.470;6.770;2024-01-16T06:53:11;30.83;;;11.50;;
3293;SDS011;1659;51.470;6.770;2024-01-16T06:55:38;39.93;;;13.43;;
3293;SDS011;1659;51.470;6.770;2024-01-16T06:58:06;22.13;;;10.97;;
3293;SDS011;1659;51.470;6.770;2024-01-16T07:00:33;24.83;;;11.40;;
3293;SDS011;1659;51.470;6.770;2024-01-16T07:03:00;22.80;;;11.80;;
3293;SDS011;1659;51.470;6.770;2024-01-16T07:05:27;22.57;;;11.63;;
3293;SDS011;1659;51.470;6.770;2024-01-16T07:07:55;32.53;;;11.77;;
3293;SDS011;1659;51.470;6.770;2024-01-16T07:10:21;27.07;;;11.80;;
3293;SDS011;1659;51.470;6.770;2024-01-16T07:12:49;22.93;;;11.20;;
3293;SDS011;1659;51.470;6.770;2024-01-16T07:15:17;30.37;;;11.90;;
3293;SDS011;1659;51.470;6.770;2024-01-16T07:17:44;27.50;;;11.63;;
3293;SDS011;1659;51.470;6.770;2024-01-16T07:20:11;17.47;;;9.87;;
3293;SDS011;1659;51.470;6.770;2024-01-16T07:22:38;19.73;;;9.87;;
3293;SDS011;1659;51.470;6.770;2024-01-16T07:25:05;28.93;;;11.50;;
3293;SDS011;1659;51.470;6.770;2024-01-16T07:27:32;25.00;;;9.87;;
3293;SDS011;1659;51.470;6.770;2024-01-16T07:29:59;18.37;;;9.83;;
3293;SDS011;1659;51.470;6.770;2024-01-16T07:32:27;21.40;;;9.73;;
3293;SDS011;1659;51.470;6.770;2024-01-16T07:34:53;24.70;;;11.37;;
3293;SDS011;1659;51.470;6.770;2024-01-16T07:37:20;19.97;;;10.07;;
3293;SDS011;1659;51.470;6.770;2024-01-16T07:39:46;24.10;;;10.03;;
3293;SDS011;1659;51.470;6.770;2024-01-16T07:42:13;23.00;;;12.40;;
3293;SDS011;1659;51.470;6.770;2024-01-16T07:44:39;24.97;;;8.10;;
3293;SDS011;1659;51.470;6.770;2024-01-16T07:47:06;17.93;;;7.20;;
3293;SDS011;1659;51.470;6.770;2024-01-16T07:49:34;22.87;;;8.27;;
3293;SDS011;1659;51.470;6.770;2024-01-16T07:52:01;16.50;;;7.60;;
3293;SDS011;1659;51.470;6.770;2024-01-16T07:54:27;19.10;;;8.47;;
3293;SDS011;1659;51.470;6.770;2024-01-16T07:56:54;31.17;;;7.60;;
3293;SDS011;1659;51.470;6.770;2024-01-16T07:59:20;23.77;;;7.10;;
3293;SDS011;1659;51.470;6.770;2024-01-16T08:01:47;17.13;;;6.40;;
3293;SDS011;1659;51.470;6.770;2024-01-16T08:04:13;19.87;;;8.50;;
3293;SDS011;1659;51.470;6.770;2024-01-16T08:06:41;13.33;;;8.33;;
3293;SDS011;1659;51.470;6.770;2024-01-16T08:09:08;13.77;;;8.00;;
3293;SDS011;1659;51.470;6.770;2024-01-16T08:11:37;16.90;;;6.33;;
3293;SDS011;1659;51.470;6.770;2024-01-16T08:14:04;13.23;;;5.53;;
3293;SDS011;1659;51.470;6.770;2024-01-16T08:16:31;10.40;;;5.90;;
3293;SDS011;1659;51.470;6.770;2024-01-16T08:18:57;15.80;;;6.60;;
3293;SDS011;1659;51.470;6.770;2024-01-16T08:21:24;14.00;;;6.83;;
3293;SDS011;1659;51.470;6.770;2024-01-16T08:23:52;29.27;;;6.80;;
3293;SDS011;1659;51.470;6.770;2024-01-16T08:26:19;20.43;;;6.00;;
3293;SDS011;1659;51.470;6.770;2024-01-16T08:28:45;7.57;;;4.97;;
3293;SDS011;1659;51.470;6.770;2024-01-16T08:31:12;18.13;;;6.07;;
3293;SDS011;1659;51.470;6.770;2024-01-16T08:33:39;9.13;;;5.93;;
3293;SDS011;1659;51.470;6.770;2024-01-16T08:36:05;11.60;;;5.70;;
3293;SDS011;1659;51.470;6.770;2024-01-16T08:38:32;7.97;;;3.90;;
3293;SDS011;1659;51.470;6.770;2024-01-16T08:41:00;13.60;;;5.30;;
3293;SDS011;1659;51.470;6.770;2024-01-16T08:43:28;14.13;;;5.90;;
3293;SDS011;1659;51.470;6.770;2024-01-16T08:45:54;11.93;;;5.40;;
3293;SDS011;1659;51.470;6.770;2024-01-16T08:48:21;10.30;;;5.20;;
3293;SDS011;1659;51.470;6.770;2024-01-16T08:50:47;9.47;;;6.03;;
3293;SDS011;1659;51.470;6.770;2024-01-16T08:53:14;12.70;;;5.67;;
3293;SDS011;1659;51.470;6.770;2024-01-16T08:55:41;14.93;;;5.43;;
3293;SDS011;1659;51.470;6.770;2024-01-16T08:58:08;11.83;;;5.30;;
3293;SDS011;1659;51.470;6.770;2024-01-16T09:00:35;9.27;;;5.17;;
3293;SDS011;1659;51.470;6.770;2024-01-16T09:03:03;12.70;;;6.53;;
3293;SDS011;1659;51.470;6.770;2024-01-16T09:05:30;12.73;;;5.67;;
3293;SDS011;1659;51.470;6.770;2024-01-16T09:07:56;5.23;;;3.80;;
3293;SDS011;1659;51.470;6.770;2024-01-16T09:10:23;14.50;;;6.17;;
3293;SDS011;1659;51.470;6.770;2024-01-16T09:12:49;9.97;;;5.40;;
3293;SDS011;1659;51.470;6.770;2024-01-16T09:15:17;12.60;;;5.70;;
3293;SDS011;1659;51.470;6.770;2024-01-16T09:17:44;8.33;;;5.33;;
3293;SDS011;1659;51.470;6.770;2024-01-16T09:20:11;11.13;;;5.77;;
3293;SDS011;1659;51.470;6.770;2024-01-16T09:22:38;10.03;;;5.23;;
3293;SDS011;1659;51.470;6.770;2024-01-16T09:25:05;9.90;;;5.00;;
3293;SDS011;1659;51.470;6.770;2024-01-16T09:27:32;16.63;;;5.07;;
3293;SDS011;1659;51.470;6.770;2024-01-16T09:29:59;25.43;;;6.07;;
3293;SDS011;1659;51.470;6.770;2024-01-16T09:32:27;13.47;;;5.17;;
3293;SDS011;1659;51.470;6.770;2024-01-16T09:34:53;15.23;;;5.43;;
3293;SDS011;1659;51.470;6.770;2024-01-16T09:37:20;10.37;;;5.50;;
3293;SDS011;1659;51.470;6.770;2024-01-16T09:39:46;8.77;;;5.50;;
3293;SDS011;1659;51.470;6.770;2024-01-16T09:42:14;12.37;;;5.80;;
3293;SDS011;1659;51.470;6.770;2024-01-16T09:44:41;8.17;;;5.03;;
3293;SDS011;1659;51.470;6.770;2024-01-16T09:47:08;11.67;;;6.40;;
3293;SDS011;1659;51.470;6.770;2024-01-16T09:49:37;12.00;;;6.17;;
3293;SDS011;1659;51.470;6.770;2024-01-16T09:52:05;16.43;;;6.30;;
3293;SDS011;1659;51.470;6.770;2024-01-16T09:54:32;10.13;;;5.40;;
3293;SDS011;1659;51.470;6.770;2024-01-16T09:56:58;10.47;;;5.20;;
3293;SDS011;1659;51.470;6.770;2024-01-16T09:59:28;11.33;;;5.20;;
3293;SDS011;1659;51.470;6.770;2024-01-16T10:01:56;7.37;;;5.60;;
3293;SDS011;1659;51.470;6.770;2024-01-16T10:04:23;20.10;;;6.80;;
3293;SDS011;1659;51.470;6.770;2024-01-16T10:06:51;10.80;;;6.70;;
3293;SDS011;1659;51.470;6.770;2024-01-16T10:09:19;9.80;;;6.10;;
3293;SDS011;1659;51.470;6.770;2024-01-16T10:11:46;7.70;;;5.83;;
3293;SDS011;1659;51.470;6.770;2024-01-16T10:14:14;17.73;;;6.73;;
3293;SDS011;1659;51.470;6.770;2024-01-16T10:16:54;12.60;;;6.83;;
3293;SDS011;1659;51.470;6.770;2024-01-16T10:19:22;8.63;;;6.13;;
3293;SDS011;1659;51.470;6.770;2024-01-16T10:21:49;11.07;;;5.70;;
3293;SDS011;1659;51.470;6.770;2024-01-16T10:24:17;12.77;;;6.07;;
3293;SDS011;1659;51.470;6.770;2024-01-16T10:26:43;7.73;;;6.07;;
3293;SDS011;1659;51.470;6.770;2024-01-16T10:29:10;15.23;;;6.07;;
3293;SDS011;1659;51.470;6.770;2024-01-16T10:31:36;12.63;;;6.63;;
3293;SDS011;1659;51.470;6.770;2024-01-16T10:34:07;16.53;;;6.80;;
3293;SDS011;1659;51.470;6.770;2024-01-16T10:36:45;13.27;;;6.87;;
3293;SDS011;1659;51.470;6.770;2024-01-16T10:39:13;18.63;;;8.50;;
3293;SDS011;1659;51.470;6.770;2024-01-16T10:41:40;19.30;;;6.57;;
3293;SDS011;1659;51.470;6.770;2024-01-16T10:44:07;15.27;;;6.77;;
3293;SDS011;1659;51.470;6.770;2024-01-16T10:46:35;12.87;;;6.50;;
3293;SDS011;1659;51.470;6.770;2024-01-16T10:49:02;11.80;;;6.33;;
3293;SDS011;1659;51.470;6.770;2024-01-16T10:51:30;7.57;;;5.90;;
3293;SDS011;1659;51.470;6.770;2024-01-16T10:53:58;14.17;;;7.00;;
3293;SDS011;1659;51.470;6.770;2024-01-16T10:56:27;17.07;;;6.23;;
3293;SDS011;1659;51.470;6.770;2024-01-16T10:58:57;11.20;;;6.20;;
3293;SDS011;1659;51.470;6.770;2024-01-16T11:01:27;29.43;;;6.63;;
3293;SDS011;1659;51.470;6.770;2024-01-16T11:03:55;13.13;;;7.37;;
3293;SDS011;1659;51.470;6.770;2024-01-16T11:06:24;10.70;;;7.53;;
3293;SDS011;1659;51.470;6.770;2024-01-16T11:08:51;21.73;;;6.43;;
3293;SDS011;1659;51.470;6.770;2024-01-16T11:11:18;22.70;;;6.97;;
3293;SDS011;1659;51.470;6.770;2024-01-16T11:13:46;22.40;;;8.10;;
3293;SDS011;1659;51.470;6.770;2024-01-16T11:16:14;9.83;;;7.30;;
3293;SDS011;1659;51.470;6.770;2024-01-16T11:18:40;9.23;;;5.97;;
3293;SDS011;1659;51.470;6.770;2024-01-16T11:21:07;21.73;;;6.83;;
3293;SDS011;1659;51.470;6.770;2024-01-16T11:23:36;15.10;;;6.83;;
3293;SDS011;1659;51.470;6.770;2024-01-16T11:28:53;17.58;;;8.95;;
3293;SDS011;1659;51.470;6.770;2024-01-16T11:31:27;16.50;;;7.80;;
3293;SDS011;1659;51.470;6.770;2024-01-16T11:33:54;18.25;;;8.18;;
3293;SDS011;1659;51.470;6.770;2024-01-16T11:39:20;21.63;;;9.80;;
3293;SDS011;1659;51.470;6.770;2024-01-16T11:41:51;14.57;;;7.83;;
3293;SDS011;1659;51.470;6.770;2024-01-16T11:47:15;14.15;;;7.38;;
3293;SDS011;1659;51.470;6.770;2024-01-16T11:49:43;13.82;;;7.40;;
3293;SDS011;1659;51.470;6.770;2024-01-16T11:52:09;18.48;;;8.57;;
3293;SDS011;1659;51.470;6.770;2024-01-16T11:54:37;14.47;;;7.50;;
3293;SDS011;1659;51.470;6.770;2024-01-16T12:00:00;17.55;;;7.28;;
3293;SDS011;1659;51.470;6.770;2024-01-16T12:02:53;18.90;;;9.27;;
3293;SDS011;1659;51.470;6.770;2024-01-16T12:05:22;11.83;;;8.30;;
3293;SDS011;1659;51.470;6.770;2024-01-16T12:07:49;14.03;;;6.93;;
3293;SDS011;1659;51.470;6.770;2024-01-16T12:10:17;10.67;;;5.90;;
3293;SDS011;1659;51.470;6.770;2024-01-16T12:12:45;16.37;;;7.40;;
3293;SDS011;1659;51.470;6.770;2024-01-16T12:15:15;15.23;;;7.67;;
3293;SDS011;1659;51.470;6.770;2024-01-16T12:17:52;22.93;;;8.23;;
3293;SDS011;1659;51.470;6.770;2024-01-16T12:20:20;13.23;;;7.30;;
3293;SDS011;1659;51.470;6.770;2024-01-16T12:22:52;14.17;;;7.47;;
3293;SDS011;1659;51.470;6.770;2024-01-16T12:25:22;16.30;;;7.23;;
3293;SDS011;1659;51.470;6.770;2024-01-16T12:27:55;14.10;;;6.23;;
3293;SDS011;1659;51.470;6.770;2024-01-16T12:30:25;15.73;;;6.70;;
3293;SDS011;1659;51.470;6.770;2024-01-16T12:33:02;10.80;;;6.37;;
3293;SDS011;1659;51.470;6.770;2024-01-16T12:35:29;12.90;;;7.33;;
3293;SDS011;1659;51.470;6.770;2024-01-16T12:37:59;13.43;;;7.00;;
3293;SDS011;1659;51.470;6.770;2024-01-16T12:40:26;17.33;;;6.63;;
3293;SDS011;1659;51.470;6.770;2024-01-16T12:42:52;14.47;;;6.67;;
3293;SDS011;1659;51.470;6.770;2024-01-16T12:45:20;8.40;;;6.30;;
3293;SDS011;1659;51.470;6.770;2024-01-16T12:47:51;16.83;;;6.37;;
3293;SDS011;1659;51.470;6.770;2024-01-16T12:50:21;16.67;;;7.20;;
3293;SDS011;1659;51.470;6.770;2024-01-16T12:52:49;7.70;;;5.80;;
3293;SDS011;1659;51.470;6.770;2024-01-16T12:55:16;19.37;;;7.53;;
3293;SDS011;1659;51.470;6.770;2024-01-16T12:57:44;15.53;;;6.37;;
3293;SDS011;1659;51.470;6.770;2024-01-16T13:00:20;15.07;;;7.37;;
3293;SDS011;1659;51.470;6.770;2024-01-16T13:02:50;13.90;;;7.73;;
3293;SDS011;1659;51.470;6.770;2024-01-16T13:05:17;14.80;;;7.67;;
3293;SDS011;1659;51.470;6.770;2024-01-16T13:07:44;15.93;;;7.10;;
3293;SDS011;1659;51.470;6.770;2024-01-16T13:10:12;9.33;;;6.13;;
3293;SDS011;1659;51.470;6.770;2024-01-16T13:12:41;14.70;;;7.77;;
3293;SDS011;1659;51.470;6.770;2024-01-16T13:15:08;14.57;;;6.50;;
3293;SDS011;1659;51.470;6.770;2024-01-16T13:17:36;12.30;;;6.30;;
3293;SDS011;1659;51.470;6.770;2024-01-16T13:20:04;10.83;;;6.77;;
3293;SDS011;1659;51.470;6.770;2024-01-16T13:22:35;15.00;;;7.50;;
3293;SDS011;1659;51.470;6.770;2024-01-16T13:25:01;10.03;;;7.13;;
3293;SDS011;1659;51.470;6.770;2024-01-16T13:27:30;16.17;;;7.63;;
3293;SDS011;1659;51.470;6.770;2024-01-16T13:29:57;14.03;;;7.30;;
3293;SDS011;1659;51.470;6.770;2024-01-16T13:32:24;13.93;;;6.87;;
3293;SDS011;1659;51.470;6.770;2024-01-16T13:34:51;9.17;;;7.70;;
3293;SDS011;1659;51.470;6.770;2024-01-16T13:37:20;15.60;;;7.70;;
3293;SDS011;1659;51.470;6.770;2024-01-16T13:39:48;15.33;;;8.53;;
3293;SDS011;1659;51.470;6.770;2024-01-16T13:42:14;11.40;;;7.23;;
3293;SDS011;1659;51.470;6.770;2024-01-16T13:44:43;18.63;;;7.77;;
3293;SDS011;1659;51.470;6.770;2024-01-16T13:47:10;17.43;;;8.37;;
3293;SDS011;1659;51.470;6.770;2024-01-16T13:49:37;11.10;;;7.03;;
3293;SDS011;1659;51.470;6.770;2024-01-16T13:52:05;13.83;;;7.30;;
3293;SDS011;1659;51.470;6.770;2024-01-16T13:54:33;15.50;;;7.10;;
3293;SDS011;1659;51.470;6.770;2024-01-16T13:57:02;19.77;;;7.07;;
3293;SDS011;1659;51.470;6.770;2024-01-16T13:59:29;20.97;;;8.00;;
3293;SDS011;1659;51.470;6.770;2024-01-16T14:01:56;14.17;;;7.67;;
3293;SDS011;1659;51.470;6.770;2024-01-16T14:04:22;12.50;;;7.43;;
3293;SDS011;1659;51.470;6.770;2024-01-16T14:06:49;13.27;;;7.10;;
3293;SDS011;1659;51.470;6.770;2024-01-16T14:09:15;14.27;;;8.00;;
3293;SDS011;1659;51.470;6.770;2024-01-16T14:11:43;13.63;;;6.90;;
3293;SDS011;1659;51.470;6.770;2024-01-16T14:14:10;7.83;;;6.30;;
3293;SDS011;1659;51.470;6.770;2024-01-16T14:16:38;13.30;;;7.37;;
3293;SDS011;1659;51.470;6.770;2024-01-16T14:19:05;12.30;;;7.63;;
3293;SDS011;1659;51.470;6.770;2024-01-16T14:21:31;14.60;;;7.27;;
3293;SDS011;1659;51.470;6.770;2024-01-16T14:23:58;12.33;;;6.60;;
3293;SDS011;1659;51.470;6.770;2024-01-16T14:26:24;12.40;;;6.50;;
3293;SDS011;1659;51.470;6.770;2024-01-16T14:28:53;10.30;;;6.57;;
3293;SDS011;1659;51.470;6.770;2024-01-16T14:31:19;10.13;;;6.73;;
3293;SDS011;1659;51.470;6.770;2024-01-16T14:33:46;13.00;;;7.73;;
3293;SDS011;1659;51.470;6.770;2024-01-16T14:36:13;15.90;;;7.23;;
3293;SDS011;1659;51.470;6.770;2024-01-16T14:38:39;10.03;;;6.73;;
3293;SDS011;1659;51.470;6.770;2024-01-16T14:41:06;13.13;;;6.87;;
3293;SDS011;1659;51.470;6.770;2024-01-16T14:43:34;19.73;;;9.00;;
3293;SDS011;1659;51.470;6.770;2024-01-16T14:46:02;10.80;;;7.40;;
3293;SDS011;1659;51.470;6.770;2024-01-16T14:48:28;11.93;;;6.37;;
3293;SDS011;1659;51.470;6.770;2024-01-16T14:50:55;14.57;;;8.00;;
3293;SDS011;1659;51.470;6.770;2024-01-16T14:53:22;12.67;;;6.83;;
3293;SDS011;1659;51.470;6.770;2024-01-16T14:55:49;13.87;;;7.50;;
3293;SDS011;1659;51.470;6.770;2024-01-16T14:58:17;16.60;;;7.30;;
3293;SDS011;1659;51.470;6.770;2024-01-16T15:00:47;14.30;;;7.43;;
3293;SDS011;1659;51.470;6.770;2024-01-16T15:03:16;10.83;;;7.60;;
3293;SDS011;1659;51.470;6.770;2024-01-16T15:05:45;16.60;;;7.50;;
3293;SDS011;1659;51.470;6.770;2024-01-16T15:08:12;19.23;;;8.70;;
3293;SDS011;1659;51.470;6.770;2024-01-16T15:10:39;7.43;;;6.20;;
3293;SDS011;1659;51.470;6.770;2024-01-16T15:13:05;19.00;;;8.50;;